Time;durP1;ratioP1;P1;durP2;ratioP2;P2;SDS_P1;SDS_P2;PMS_P1;PMS_P2;Temp;Humidity;BMP_temperature;BMP_pressure;BME280_temperature;BME280_humidity;BME280_pressure;Samples;Min_cycle;Max_cycle;Signal;HPM_P1;HPM_P2
2022/08/02 00:01:35;;;;;;;;;;;13.10;99.90;;;;;;5014014;28;19951;-45
2022/08/02 00:04:01;;;;;;;;;;;13.10;99.90;;;;;;5049081;27;19938;-52
2022/08/02 00:06:26;;;;;;;;;;;13.10;99.90;;;;;;5049303;27;20254;-55
2022/08/02 00:08:53;;;;;;;;;;;13.00;99.90;;;;;;5020313;28;19979;-48
2022/08/02 00:11:20;;;;;;;;;;;13.00;99.90;;;;;;5024066;28;19929;-50
2022/08/02 00:13:46;;;;;;;;;;;13.00;99.90;;;;;;5023973;28;20844;-47
2022/08/02 00:16:12;;;;;;;;;;;12.90;99.90;;;;;;5022078;28;20028;-51
2022/08/02 00:18:41;;;;;;;;;;;12.90;99.90;;;;;;5036487;27;20380;-49
2022/08/02 00:21:06;;;;;;;;;;;12.90;99.90;;;;;;5033530;27;20928;-51
2022/08/02 00:23:33;;;;;;;;;;;12.90;99.90;;;;;;5022182;28;19929;-46
2022/08/02 00:25:59;;;;;;;;;;;12.90;99.90;;;;;;5020748;28;19925;-46
2022/08/02 00:28:24;;;;;;;;;;;12.80;99.90;;;;;;5025223;27;20839;-48
2022/08/02 00:30:50;;;;;;;;;;;12.80;99.90;;;;;;5022813;28;20066;-46
2022/08/02 00:33:17;;;;;;;;;;;12.80;99.90;;;;;;5021258;28;19929;-44
2022/08/02 00:35:46;;;;;;;;;;;12.70;99.90;;;;;;5022766;28;19929;-47
2022/08/02 00:38:12;;;;;;;;;;;12.70;99.90;;;;;;5020992;28;19935;-47
2022/08/02 00:40:38;;;;;;;;;;;12.70;99.90;;;;;;5013124;28;19929;-47
2022/08/02 00:43:09;;;;;;;;;;;12.70;99.90;;;;;;5015058;28;19929;-45
2022/08/02 00:45:38;;;;;;;;;;;12.60;99.90;;;;;;5018590;28;19964;-47
2022/08/02 00:48:05;;;;;;;;;;;12.60;99.90;;;;;;5020710;28;19925;-46
2022/08/02 00:50:31;;;;;;;;;;;12.60;99.90;;;;;;5016546;27;19959;-45
2022/08/02 00:52:58;;;;;;;;;;;12.60;99.90;;;;;;5019540;28;20765;-47
2022/08/02 00:55:24;;;;;;;;;;;12.60;99.90;;;;;;5019402;28;19932;-47
2022/08/02 00:57:51;;;;;;;;;;;12.50;99.90;;;;;;5020473;28;20390;-48
2022/08/02 01:00:17;;;;;;;;;;;12.50;99.90;;;;;;5031780;27;20753;-48
2022/08/02 01:02:43;;;;;;;;;;;12.50;99.90;;;;;;5022919;28;19929;-50
2022/08/02 01:05:09;;;;;;;;;;;12.50;99.90;;;;;;5021697;28;20043;-50
2022/08/02 01:07:36;;;;;;;;;;;12.50;99.90;;;;;;5020137;28;20498;-48
2022/08/02 01:10:03;;;;;;;;;;;12.40;99.90;;;;;;5026610;27;19937;-46
2022/08/02 01:12:28;;;;;;;;;;;12.40;99.90;;;;;;5045579;28;19940;-47
2022/08/02 01:14:55;;;;;;;;;;;12.40;99.90;;;;;;5023090;28;19925;-49
2022/08/02 01:17:21;;;;;;;;;;;12.40;99.90;;;;;;5023490;28;19933;-50
2022/08/02 01:19:47;;;;;;;;;;;12.40;99.90;;;;;;5023265;28;20294;-47
2022/08/02 01:22:31;;;;;;;;;;;12.40;99.90;;;;;;5024074;27;19929;-52
2022/08/02 01:25:03;;;;;;;;;;;12.40;99.90;;;;;;5019970;28;19982;-50
2022/08/02 01:27:47;;;;;;;;;;;12.40;99.90;;;;;;5024622;28;19925;-50
2022/08/02 01:30:15;;;;;;;;;;;12.40;99.90;;;;;;5030513;28;20309;-49
2022/08/02 01:32:43;;;;;;;;;;;12.40;99.90;;;;;;5031181;27;19998;-48
2022/08/02 01:35:14;;;;;;;;;;;12.40;99.90;;;;;;5026806;28;19935;-51
2022/08/02 01:37:43;;;;;;;;;;;12.40;99.90;;;;;;5020552;28;19954;-49
2022/08/02 01:40:15;;;;;;;;;;;12.40;99.90;;;;;;5018107;28;19929;-49
2022/08/02 01:42:45;;;;;;;;;;;12.30;99.90;;;;;;5029475;27;19933;-47
2022/08/02 01:45:12;;;;;;;;;;;12.30;99.90;;;;;;5021098;28;19933;-49
2022/08/02 01:47:40;;;;;;;;;;;12.30;99.90;;;;;;5021418;28;20319;-50
2022/08/02 01:50:10;;;;;;;;;;;12.30;99.90;;;;;;5022098;28;19994;-47
2022/08/02 01:52:40;;;;;;;;;;;12.30;99.90;;;;;;5053484;27;20208;-48
2022/08/02 01:55:08;;;;;;;;;;;12.30;99.90;;;;;;5032694;27;19929;-50
2022/08/02 01:57:36;;;;;;;;;;;12.30;99.90;;;;;;5023010;28;19933;-46
2022/08/02 02:00:03;;;;;;;;;;;12.30;99.90;;;;;;5022600;28;20315;-46
2022/08/02 02:02:30;;;;;;;;;;;12.30;99.90;;;;;;5022289;28;19929;-50
2022/08/02 02:04:56;;;;;;;;;;;12.30;99.90;;;;;;5027597;28;19925;-51
2022/08/02 02:07:23;;;;;;;;;;;12.30;99.90;;;;;;5022551;28;19936;-47
2022/08/02 02:09:49;;;;;;;;;;;12.30;99.90;;;;;;5021028;28;20397;-47
2022/08/02 02:12:15;;;;;;;;;;;12.30;99.90;;;;;;5021643;28;20289;-48
2022/08/02 02:14:43;;;;;;;;;;;12.30;99.90;;;;;;5025988;27;20357;-49
2022/08/02 02:17:10;;;;;;;;;;;12.30;99.90;;;;;;5029059;28;20377;-48
2022/08/02 02:19:38;;;;;;;;;;;12.30;99.90;;;;;;5021602;28;19937;-46
2022/08/02 02:22:04;;;;;;;;;;;12.30;99.90;;;;;;5022050;28;20481;-47
2022/08/02 02:24:30;;;;;;;;;;;12.30;99.90;;;;;;5025484;27;19948;-46
2022/08/02 02:26:58;;;;;;;;;;;12.30;99.90;;;;;;5021792;28;19936;-49
2022/08/02 02:29:27;;;;;;;;;;;12.30;99.90;;;;;;5022132;28;19943;-46
2022/08/02 02:31:54;;;;;;;;;;;12.30;99.90;;;;;;5021627;28;20671;-46
2022/08/02 02:34:32;;;;;;;;;;;12.30;99.90;;;;;;5020111;28;19972;-50
2022/08/02 02:37:00;;;;;;;;;;;12.30;99.90;;;;;;5049360;28;19978;-51
2022/08/02 02:39:47;;;;;;;;;;;12.30;99.90;;;;;;5038637;27;20461;-51
2022/08/02 02:42:15;;;;;;;;;;;12.30;99.90;;;;;;5022104;28;19929;-46
2022/08/02 02:44:41;;;;;;;;;;;12.30;99.90;;;;;;5021818;28;20371;-50
2022/08/02 02:47:09;;;;;;;;;;;12.30;99.90;;;;;;5027721;28;19929;-46
2022/08/02 02:49:35;;;;;;;;;;;12.30;99.90;;;;;;5021752;28;20354;-49
2022/08/02 02:52:02;;;;;;;;;;;12.30;99.90;;;;;;5044565;28;19927;-51
2022/08/02 02:54:29;;;;;;;;;;;12.30;99.90;;;;;;5022570;28;20027;-47
2022/08/02 02:56:56;;;;;;;;;;;12.30;99.90;;;;;;5027822;28;19936;-48
2022/08/02 02:59:23;;;;;;;;;;;12.30;99.90;;;;;;5021775;28;19937;-47
2022/08/02 03:01:49;;;;;;;;;;;12.30;99.90;;;;;;5020584;28;19990;-47
2022/08/02 03:04:16;;;;;;;;;;;12.30;99.90;;;;;;5019396;28;19940;-51
2022/08/02 03:06:43;;;;;;;;;;;12.30;99.90;;;;;;5020756;28;20318;-50
2022/08/02 03:09:10;;;;;;;;;;;12.40;99.90;;;;;;5042170;28;19929;-48
2022/08/02 03:11:37;;;;;;;;;;;12.40;99.90;;;;;;5020174;28;20024;-48
2022/08/02 03:14:04;;;;;;;;;;;12.40;99.90;;;;;;5020236;28;19929;-46
2022/08/02 03:16:30;;;;;;;;;;;12.40;99.90;;;;;;5018705;28;19990;-47
2022/08/02 03:18:56;;;;;;;;;;;12.40;99.90;;;;;;5027666;28;20019;-46
2022/08/02 03:21:23;;;;;;;;;;;12.40;99.90;;;;;;5020705;28;20374;-48
2022/08/02 03:23:49;;;;;;;;;;;12.40;99.90;;;;;;5021165;28;20307;-46
2022/08/02 03:26:15;;;;;;;;;;;12.40;99.90;;;;;;5022149;28;19936;-47
2022/08/02 03:28:42;;;;;;;;;;;12.40;99.90;;;;;;5030438;27;19980;-49
2022/08/02 03:31:08;;;;;;;;;;;12.40;99.90;;;;;;5024362;28;20020;-52
2022/08/02 03:33:35;;;;;;;;;;;12.40;99.90;;;;;;5024163;28;19944;-49
2022/08/02 03:36:04;;;;;;;;;;;12.40;99.90;;;;;;5022595;28;20407;-47
2022/08/02 03:38:31;;;;;;;;;;;12.40;99.90;;;;;;5039201;27;20410;-47
2022/08/02 03:40:57;;;;;;;;;;;12.40;99.90;;;;;;5024805;27;19929;-48
2022/08/02 03:43:24;;;;;;;;;;;12.40;99.90;;;;;;5022545;28;20387;-50
2022/08/02 03:45:50;;;;;;;;;;;12.40;99.90;;;;;;5023108;28;20015;-48
2022/08/02 03:48:17;;;;;;;;;;;12.40;99.90;;;;;;5022334;28;20419;-47
2022/08/02 03:50:45;;;;;;;;;;;12.40;99.90;;;;;;5059781;27;19927;-51
2022/08/02 03:53:12;;;;;;;;;;;12.40;99.90;;;;;;5054641;27;19940;-57
2022/08/02 03:55:39;;;;;;;;;;;12.40;99.90;;;;;;5025345;28;19929;-48
2022/08/02 03:58:04;;;;;;;;;;;12.40;99.90;;;;;;5024406;28;19929;-46
2022/08/02 04:00:31;;;;;;;;;;;12.40;99.90;;;;;;5029725;27;19929;-50
2022/08/02 04:02:57;;;;;;;;;;;12.40;99.90;;;;;;5035733;27;20276;-48
2022/08/02 04:05:24;;;;;;;;;;;12.40;99.90;;;;;;5022985;28;20390;-46
2022/08/02 04:07:50;;;;;;;;;;;12.40;99.90;;;;;;5024363;28;19929;-49
2022/08/02 04:10:16;;;;;;;;;;;12.50;99.90;;;;;;5024478;28;19929;-50
2022/08/02 04:12:42;;;;;;;;;;;12.50;99.90;;;;;;5051464;27;19929;-48
2022/08/02 04:15:09;;;;;;;;;;;12.50;99.90;;;;;;5020583;28;19933;-50
2022/08/02 04:17:37;;;;;;;;;;;12.60;99.90;;;;;;5022492;28;19932;-48
2022/08/02 04:20:30;;;;;;;;;;;12.60;99.90;;;;;;5040286;28;20016;-48
2022/08/02 04:23:00;;;;;;;;;;;12.60;99.90;;;;;;5056820;27;19929;-47
2022/08/02 04:25:27;;;;;;;;;;;12.70;99.90;;;;;;5058309;27;19935;-49
2022/08/02 04:27:53;;;;;;;;;;;12.70;99.90;;;;;;5020828;28;19951;-49
2022/08/02 04:30:20;;;;;;;;;;;12.80;99.90;;;;;;5023449;28;20294;-47
2022/08/02 04:32:46;;;;;;;;;;;12.80;99.90;;;;;;5032786;28;19974;-47
2022/08/02 04:35:12;;;;;;;;;;;12.90;99.90;;;;;;5023499;28;20029;-49
2022/08/02 04:37:38;;;;;;;;;;;12.90;99.90;;;;;;5023955;27;20383;-47
2022/08/02 04:40:14;;;;;;;;;;;13.00;99.90;;;;;;5018100;28;19929;-45
2022/08/02 04:42:40;;;;;;;;;;;13.00;99.90;;;;;;5005293;28;19925;-50
2022/08/02 04:45:07;;;;;;;;;;;13.10;99.90;;;;;;5046027;27;20299;-49
2022/08/02 04:47:33;;;;;;;;;;;13.30;99.90;;;;;;5024642;27;19979;-48
2022/08/02 04:49:59;;;;;;;;;;;13.90;99.90;;;;;;5023369;28;19929;-46
2022/08/02 04:52:25;;;;;;;;;;;14.80;99.90;;;;;;5023454;28;19964;-47
2022/08/02 04:54:52;;;;;;;;;;;15.70;99.90;;;;;;5090631;27;20425;-50
2022/08/02 05:00:10;;;;;;;;;;;17.30;99.90;;;;;;5025387;28;19929;-46
2022/08/02 05:02:36;;;;;;;;;;;17.90;99.90;;;;;;5022334;28;20016;-50
2022/08/02 05:05:02;;;;;;;;;;;18.50;99.90;;;;;;5029332;27;19937;-52
2022/08/02 05:07:30;;;;;;;;;;;18.70;99.90;;;;;;5025249;27;19929;-49
2022/08/02 05:09:55;;;;;;;;;;;18.50;99.90;;;;;;5025773;28;20391;-46
2022/08/02 05:12:23;;;;;;;;;;;18.20;99.90;;;;;;5023483;28;19985;-46
2022/08/02 05:14:49;;;;;;;;;;;18.40;99.90;;;;;;5023529;28;19976;-47
2022/08/02 05:17:15;;;;;;;;;;;18.90;99.90;;;;;;5020607;28;19936;-51
2022/08/02 05:19:41;;;;;;;;;;;19.90;99.90;;;;;;5012172;28;19933;-49
2022/08/02 05:22:07;;;;;;;;;;;20.10;99.90;;;;;;5023268;28;19936;-51
2022/08/02 05:24:33;;;;;;;;;;;19.80;99.90;;;;;;5022023;28;20472;-50
2022/08/02 05:26:59;;;;;;;;;;;19.30;99.90;;;;;;5037445;27;19929;-47
2022/08/02 05:29:25;;;;;;;;;;;19.10;99.90;;;;;;5021267;28;19936;-47
2022/08/02 05:31:51;;;;;;;;;;;18.80;99.90;;;;;;5021491;28;20379;-47
2022/08/02 05:34:17;;;;;;;;;;;19.20;99.90;;;;;;5021836;28;19929;-47
2022/08/02 05:36:43;;;;;;;;;;;19.90;99.90;;;;;;5020768;28;19933;-48
2022/08/02 05:39:09;;;;;;;;;;;20.20;99.90;;;;;;5022270;28;20016;-48
2022/08/02 05:41:35;;;;;;;;;;;20.60;99.90;;;;;;5022963;28;20632;-47
2022/08/02 05:44:07;;;;;;;;;;;20.50;99.90;;;;;;5029861;28;19955;-48
2022/08/02 05:46:32;;;;;;;;;;;20.30;99.90;;;;;;5015730;28;19929;-52
2022/08/02 05:49:00;;;;;;;;;;;20.90;99.90;;;;;;5029652;27;19929;-48
2022/08/02 05:51:29;;;;;;;;;;;21.70;99.90;;;;;;5015771;28;19936;-47
2022/08/02 05:54:13;;;;;;;;;;;21.90;99.90;;;;;;5023398;28;19925;-51
2022/08/02 05:56:50;;;;;;;;;;;22.50;99.90;;;;;;5029729;28;19925;-46
2022/08/02 05:59:31;;;;;;;;;;;23.50;99.90;;;;;;5031314;27;19936;-47
2022/08/02 06:02:00;;;;;;;;;;;24.40;99.40;;;;;;5042109;27;19927;-50
2022/08/02 06:04:31;;;;;;;;;;;24.90;98.20;;;;;;5023035;28;19929;-51
2022/08/02 06:07:05;;;;;;;;;;;25.20;98.10;;;;;;5022308;28;19950;-50
2022/08/02 06:09:31;;;;;;;;;;;25.70;97.50;;;;;;5021479;28;19940;-52
2022/08/02 06:11:58;;;;;;;;;;;26.40;96.20;;;;;;5031261;27;19927;-52
2022/08/02 06:14:24;;;;;;;;;;;26.90;96.00;;;;;;5042841;27;19929;-47
2022/08/02 06:16:50;;;;;;;;;;;27.30;95.10;;;;;;5021713;28;19932;-52
2022/08/02 06:19:16;;;;;;;;;;;27.50;94.80;;;;;;5041460;28;19925;-49
2022/08/02 06:21:51;;;;;;;;;;;27.60;93.40;;;;;;5022939;28;20308;-57
2022/08/02 06:24:20;;;;;;;;;;;27.50;93.70;;;;;;5030647;27;20295;-51
2022/08/02 06:26:51;;;;;;;;;;;27.50;93.70;;;;;;5024620;28;19926;-50
2022/08/02 06:29:17;;;;;;;;;;;27.00;93.80;;;;;;5022457;28;19929;-49
2022/08/02 06:31:44;;;;;;;;;;;26.70;93.60;;;;;;5051040;27;19927;-46
2022/08/02 06:34:10;;;;;;;;;;;26.40;94.20;;;;;;5047390;28;19931;-49
2022/08/02 06:36:38;;;;;;;;;;;26.00;94.40;;;;;;5023674;28;19925;-48
2022/08/02 06:39:16;;;;;;;;;;;25.80;94.20;;;;;;5050729;28;20370;-49
2022/08/02 06:41:43;;;;;;;;;;;25.90;94.50;;;;;;5053132;28;19929;-50
2022/08/02 06:44:09;;;;;;;;;;;26.00;94.30;;;;;;5036387;28;19928;-49
2022/08/02 06:46:36;;;;;;;;;;;26.40;94.40;;;;;;5018843;28;19929;-51
2022/08/02 06:49:02;;;;;;;;;;;26.60;94.20;;;;;;5021210;28;19929;-47
2022/08/02 06:51:28;;;;;;;;;;;26.60;94.20;;;;;;5047035;28;19929;-47
2022/08/02 06:53:54;;;;;;;;;;;26.70;93.80;;;;;;5055745;28;20041;-52
2022/08/02 06:56:21;;;;;;;;;;;27.00;93.80;;;;;;5069735;27;19936;-51
2022/08/02 06:58:50;;;;;;;;;;;27.30;93.30;;;;;;5073404;27;19979;-47
2022/08/02 07:01:17;;;;;;;;;;;27.20;92.70;;;;;;5073913;27;19938;-50
2022/08/02 07:03:43;;;;;;;;;;;26.50;92.40;;;;;;5046346;27;20420;-48
2022/08/02 07:06:09;;;;;;;;;;;25.80;93.00;;;;;;5028101;27;19950;-52
2022/08/02 07:08:37;;;;;;;;;;;25.40;93.90;;;;;;5023234;28;19980;-49
2022/08/02 07:11:07;;;;;;;;;;;25.30;94.50;;;;;;5032510;27;19929;-49
2022/08/02 07:13:33;;;;;;;;;;;25.60;94.50;;;;;;5036670;27;20150;-52
2022/08/02 07:16:00;;;;;;;;;;;25.80;94.00;;;;;;5023236;27;19929;-51
2022/08/02 07:18:26;;;;;;;;;;;25.80;94.30;;;;;;5043976;27;19929;-49
2022/08/02 07:20:52;;;;;;;;;;;25.40;94.50;;;;;;5023181;28;19929;-48
2022/08/02 07:23:18;;;;;;;;;;;25.30;94.50;;;;;;5039297;27;20608;-51
2022/08/02 07:25:45;;;;;;;;;;;25.20;95.00;;;;;;5024319;28;20298;-47
2022/08/02 07:28:11;;;;;;;;;;;25.30;94.70;;;;;;5024185;28;20673;-51
2022/08/02 07:30:36;;;;;;;;;;;25.40;94.70;;;;;;5024680;28;20029;-48
2022/08/02 07:33:03;;;;;;;;;;;25.30;94.70;;;;;;5023011;28;20395;-49
2022/08/02 07:35:30;;;;;;;;;;;25.20;94.20;;;;;;5026622;27;20303;-48
2022/08/02 07:37:56;;;;;;;;;;;25.30;95.50;;;;;;5024750;28;19929;-49
2022/08/02 07:40:23;;;;;;;;;;;25.40;94.80;;;;;;5020468;28;20000;-48
2022/08/02 07:42:53;;;;;;;;;;;25.40;94.80;;;;;;5025305;28;20302;-48
2022/08/02 07:45:23;;;;;;;;;;;25.30;94.60;;;;;;5026178;28;19925;-50
2022/08/02 07:47:49;;;;;;;;;;;25.30;94.80;;;;;;5025006;28;19929;-48
2022/08/02 07:50:16;;;;;;;;;;;25.20;94.60;;;;;;5024897;28;20025;-48
2022/08/02 07:52:43;;;;;;;;;;;25.30;95.20;;;;;;5025080;28;19952;-49
2022/08/02 07:55:10;;;;;;;;;;;25.40;94.90;;;;;;5050340;27;19924;-48
2022/08/02 07:57:37;;;;;;;;;;;25.40;94.70;;;;;;5031251;27;20006;-52
2022/08/02 08:00:08;;;;;;;;;;;25.30;94.20;;;;;;5024531;28;19929;-50
2022/08/02 08:02:34;;;;;;;;;;;25.10;94.20;;;;;;5049253;27;19984;-50
2022/08/02 08:05:01;;;;;;;;;;;25.00;94.20;;;;;;5021938;28;19985;-51
2022/08/02 08:07:27;;;;;;;;;;;25.10;94.90;;;;;;5023397;27;19929;-52
2022/08/02 08:09:53;;;;;;;;;;;25.00;94.40;;;;;;5023721;28;20743;-48
2022/08/02 08:12:19;;;;;;;;;;;25.00;94.80;;;;;;5023144;28;19926;-46
2022/08/02 08:14:45;;;;;;;;;;;24.80;94.40;;;;;;5020276;28;19986;-47
2022/08/02 08:17:11;;;;;;;;;;;24.70;94.60;;;;;;5028388;27;20362;-47
2022/08/02 08:19:37;;;;;;;;;;;24.70;94.80;;;;;;5046455;27;19929;-49
2022/08/02 08:22:04;;;;;;;;;;;24.80;95.30;;;;;;5049147;28;19929;-48
2022/08/02 08:24:30;;;;;;;;;;;24.90;95.30;;;;;;5023756;28;19932;-48
2022/08/02 08:26:56;;;;;;;;;;;25.00;95.50;;;;;;5027934;27;19927;-49
2022/08/02 08:29:22;;;;;;;;;;;25.10;95.40;;;;;;5021495;28;20522;-47
2022/08/02 08:31:53;;;;;;;;;;;25.20;95.30;;;;;;5023822;28;20245;-51
2022/08/02 08:34:26;;;;;;;;;;;25.30;95.10;;;;;;5062380;27;19978;-49
2022/08/02 08:36:51;;;;;;;;;;;25.40;95.30;;;;;;5006167;28;19933;-48
2022/08/02 08:39:23;;;;;;;;;;;25.60;95.70;;;;;;5025622;27;20478;-50
2022/08/02 08:41:50;;;;;;;;;;;25.60;96.00;;;;;;5024429;28;19937;-50
2022/08/02 08:44:16;;;;;;;;;;;25.50;95.40;;;;;;5023809;27;19934;-48
2022/08/02 08:46:42;;;;;;;;;;;25.50;95.20;;;;;;5016024;27;20748;-49
2022/08/02 08:49:11;;;;;;;;;;;25.50;95.50;;;;;;5025029;27;19984;-47
2022/08/02 08:51:42;;;;;;;;;;;25.60;95.00;;;;;;5022241;28;19933;-48
2022/08/02 08:54:17;;;;;;;;;;;25.40;94.50;;;;;;5024145;28;19929;-47
2022/08/02 08:56:43;;;;;;;;;;;25.50;94.60;;;;;;5023325;28;20276;-52
2022/08/02 08:59:09;;;;;;;;;;;25.50;94.60;;;;;;5031208;27;20383;-49
2022/08/02 09:01:35;;;;;;;;;;;25.40;94.40;;;;;;5038848;27;19927;-49
2022/08/02 09:04:02;;;;;;;;;;;25.50;95.50;;;;;;5032370;27;20016;-50
2022/08/02 09:06:29;;;;;;;;;;;25.60;95.60;;;;;;5024372;28;19937;-48
2022/08/02 09:08:55;;;;;;;;;;;25.60;95.70;;;;;;5019717;28;20345;-48
2022/08/02 09:11:23;;;;;;;;;;;25.60;94.70;;;;;;5051239;27;19936;-49
2022/08/02 09:13:49;;;;;;;;;;;25.30;94.70;;;;;;5020585;28;19969;-52
2022/08/02 09:16:26;;;;;;;;;;;25.40;95.40;;;;;;5017628;28;20024;-47
2022/08/02 09:18:52;;;;;;;;;;;25.50;96.40;;;;;;5038952;27;19929;-49
2022/08/02 09:21:19;;;;;;;;;;;25.50;95.90;;;;;;5020683;27;19929;-51
2022/08/02 09:23:46;;;;;;;;;;;25.70;96.50;;;;;;5017237;28;19968;-48
2022/08/02 09:26:13;;;;;;;;;;;25.90;96.10;;;;;;5018127;28;20054;-49
2022/08/02 09:28:40;;;;;;;;;;;26.00;96.10;;;;;;5018593;28;19929;-49
2022/08/02 09:31:07;;;;;;;;;;;26.00;96.00;;;;;;5045851;27;19930;-48
2022/08/02 09:33:33;;;;;;;;;;;25.90;95.70;;;;;;5021975;28;19980;-49
2022/08/02 09:36:06;;;;;;;;;;;25.60;95.90;;;;;;5022790;28;19979;-48
2022/08/02 09:38:33;;;;;;;;;;;25.60;96.40;;;;;;5021084;28;20406;-50
2022/08/02 09:40:59;;;;;;;;;;;25.70;97.40;;;;;;5017983;28;19937;-48
2022/08/02 09:43:34;;;;;;;;;;;25.60;96.70;;;;;;5019401;28;20369;-48
2022/08/02 09:46:10;;;;;;;;;;;25.60;97.10;;;;;;5031514;27;19952;-51
2022/08/02 09:48:46;;;;;;;;;;;25.60;96.60;;;;;;5020320;28;19929;-49
2022/08/02 09:51:15;;;;;;;;;;;25.50;96.50;;;;;;5023204;28;19929;-47
2022/08/02 09:53:42;;;;;;;;;;;25.60;97.30;;;;;;5028542;27;19933;-48
2022/08/02 09:56:08;;;;;;;;;;;25.70;97.10;;;;;;5022670;28;19972;-49
2022/08/02 09:58:38;;;;;;;;;;;25.60;97.30;;;;;;5021166;28;19972;-47
2022/08/02 10:01:04;;;;;;;;;;;25.80;97.60;;;;;;5023013;28;19929;-49
2022/08/02 10:03:29;;;;;;;;;;;26.00;97.70;;;;;;5053579;27;20295;-49
2022/08/02 10:13:43;;;;;;;;;;;26.40;97.20;;;;;;5076432;27;19921;-46
2022/08/02 10:16:09;;;;;;;;;;;26.40;97.30;;;;;;5072250;28;19928;-49
2022/08/02 10:18:44;;;;;;;;;;;26.50;97.10;;;;;;5076857;28;19929;-51
2022/08/02 10:21:32;;;;;;;;;;;26.60;97.50;;;;;;5079193;28;20005;-47
2022/08/02 10:24:09;;;;;;;;;;;26.70;97.60;;;;;;5062643;28;19928;-49
2022/08/02 10:26:36;;;;;;;;;;;26.70;97.00;;;;;;5075826;28;19940;-48
2022/08/02 10:29:01;;;;;;;;;;;27.00;97.90;;;;;;5069948;28;19928;-49
2022/08/02 10:31:31;;;;;;;;;;;27.10;97.00;;;;;;5078180;28;19974;-47
2022/08/02 10:33:58;;;;;;;;;;;27.10;96.60;;;;;;5078563;28;19928;-49
2022/08/02 10:36:29;;;;;;;;;;;26.80;96.30;;;;;;5077488;28;20185;-48
2022/08/02 10:38:57;;;;;;;;;;;26.70;97.20;;;;;;5077649;28;20448;-48
2022/08/02 10:41:41;;;;;;;;;;;26.80;97.60;;;;;;5076164;28;19979;-49
2022/08/02 10:44:18;;;;;;;;;;;26.90;97.60;;;;;;5072743;28;20026;-47
2022/08/02 10:46:49;;;;;;;;;;;27.10;98.20;;;;;;5075337;28;20027;-47
2022/08/02 10:49:19;;;;;;;;;;;27.30;98.20;;;;;;5077184;28;19967;-48
2022/08/02 10:51:57;;;;;;;;;;;27.30;97.70;;;;;;5057869;28;20472;-48
2022/08/02 10:54:37;;;;;;;;;;;27.40;97.60;;;;;;5056247;28;19928;-50
2022/08/02 10:57:12;;;;;;;;;;;27.50;97.20;;;;;;5073557;28;19936;-50
2022/08/02 10:59:38;;;;;;;;;;;27.60;97.50;;;;;;5075472;28;19985;-47
2022/08/02 11:02:04;;;;;;;;;;;27.60;97.50;;;;;;5077556;28;20397;-48
2022/08/02 11:04:50;;;;;;;;;;;27.60;97.30;;;;;;5075995;28;20338;-47
2022/08/02 11:07:29;;;;;;;;;;;27.50;97.20;;;;;;5064858;28;19928;-49
2022/08/02 11:09:55;;;;;;;;;;;27.30;97.50;;;;;;5076982;28;20298;-47
2022/08/02 11:12:21;;;;;;;;;;;27.10;97.50;;;;;;5072052;28;20019;-48
2022/08/02 11:15:04;;;;;;;;;;;27.00;98.00;;;;;;5076156;28;19935;-49
2022/08/02 11:18:05;;;;;;;;;;;27.00;98.30;;;;;;5076780;28;20420;-50
2022/08/02 11:20:31;;;;;;;;;;;27.00;97.90;;;;;;5026157;28;19933;-48
2022/08/02 11:23:16;;;;;;;;;;;26.90;98.50;;;;;;5036338;28;20668;-47
2022/08/02 11:25:42;;;;;;;;;;;27.10;98.90;;;;;;5030038;28;19936;-51
2022/08/02 11:28:09;;;;;;;;;;;27.10;98.80;;;;;;5000188;28;20295;-46
2022/08/02 11:30:34;;;;;;;;;;;27.10;98.80;;;;;;5028469;28;20023;-47
2022/08/02 11:33:00;;;;;;;;;;;27.20;99.00;;;;;;5027685;28;19928;-49
2022/08/02 11:35:36;;;;;;;;;;;27.30;99.00;;;;;;5021543;28;20327;-47
2022/08/02 11:38:15;;;;;;;;;;;27.20;98.90;;;;;;5031597;28;20004;-47
2022/08/02 11:40:41;;;;;;;;;;;27.20;99.20;;;;;;5018899;28;19979;-48
2022/08/02 11:43:20;;;;;;;;;;;27.30;99.10;;;;;;5017305;28;21183;-47
2022/08/02 11:45:46;;;;;;;;;;;27.50;98.20;;;;;;5024183;28;19933;-48
2022/08/02 11:48:12;;;;;;;;;;;27.60;98.50;;;;;;5018974;28;20139;-47
2022/08/02 11:50:37;;;;;;;;;;;27.50;98.80;;;;;;5020351;28;19996;-49
2022/08/02 11:53:11;;;;;;;;;;;27.70;99.00;;;;;;5022209;28;19936;-51
2022/08/02 11:55:37;;;;;;;;;;;27.80;99.00;;;;;;5048285;28;19928;-55
2022/08/02 11:58:04;;;;;;;;;;;27.90;99.00;;;;;;5061913;28;19934;-57
2022/08/02 12:00:35;;;;;;;;;;;27.80;97.90;;;;;;5057888;28;19925;-49
2022/08/02 12:03:00;;;;;;;;;;;27.70;97.40;;;;;;5055877;28;19928;-47
2022/08/02 12:05:26;;;;;;;;;;;27.60;97.80;;;;;;5060107;28;20396;-52
2022/08/02 12:07:55;;;;;;;;;;;27.30;98.40;;;;;;5060355;28;20390;-51
2022/08/02 12:10:22;;;;;;;;;;;27.40;98.20;;;;;;5060405;28;19947;-52
2022/08/02 12:12:55;;;;;;;;;;;27.40;98.80;;;;;;5056959;28;20469;-48
2022/08/02 12:15:31;;;;;;;;;;;27.20;98.00;;;;;;5061009;28;19955;-49
2022/08/02 12:20:41;;;;;;;;;;;27.10;98.40;;;;;;5059495;28;19932;-47
2022/08/02 12:23:19;;;;;;;;;;;27.00;98.50;;;;;;5056631;28;19928;-47
2022/08/02 12:25:45;;;;;;;;;;;26.90;98.70;;;;;;5061016;28;20358;-49
2022/08/02 12:28:12;;;;;;;;;;;26.80;98.90;;;;;;5055111;28;19936;-47
2022/08/02 12:30:47;;;;;;;;;;;26.70;99.30;;;;;;5061158;28;19928;-48
2022/08/02 12:33:13;;;;;;;;;;;26.60;99.00;;;;;;5062560;28;20057;-48
2022/08/02 12:35:42;;;;;;;;;;;26.60;98.90;;;;;;5056148;28;19933;-48
2022/08/02 12:38:08;;;;;;;;;;;26.50;99.10;;;;;;5060639;28;19928;-49
2022/08/02 12:40:34;;;;;;;;;;;26.50;99.20;;;;;;5059860;28;20054;-48
2022/08/02 12:43:05;;;;;;;;;;;26.60;99.30;;;;;;5059074;28;19932;-48
2022/08/02 12:45:52;;;;;;;;;;;26.60;99.20;;;;;;5059910;28;19974;-47
2022/08/02 12:48:31;;;;;;;;;;;26.70;99.20;;;;;;5062221;28;19974;-48
2022/08/02 12:50:56;;;;;;;;;;;26.80;99.30;;;;;;5059534;28;19968;-48
2022/08/02 12:53:29;;;;;;;;;;;26.70;99.10;;;;;;5060542;28;20548;-46
2022/08/02 12:55:56;;;;;;;;;;;26.60;99.40;;;;;;5060792;28;20051;-48
2022/08/02 12:58:21;;;;;;;;;;;26.50;98.90;;;;;;5060635;28;19929;-47
2022/08/02 13:13:04;;;;;;;;;;;26.50;99.50;;;;;;5041003;28;19917;-47
2022/08/02 13:15:31;;;;;;;;;;;26.20;99.30;;;;;;5035878;28;20229;-48
2022/08/02 13:17:57;;;;;;;;;;;26.20;99.70;;;;;;5041878;28;19928;-47
2022/08/02 13:20:26;;;;;;;;;;;26.20;99.80;;;;;;5034208;28;19935;-49
2022/08/02 13:22:52;;;;;;;;;;;26.20;99.90;;;;;;5044112;28;19935;-46
2022/08/02 13:25:21;;;;;;;;;;;25.90;99.80;;;;;;5025740;28;19929;-48
2022/08/02 13:27:50;;;;;;;;;;;25.70;99.90;;;;;;5033061;28;19936;-50
2022/08/02 13:30:16;;;;;;;;;;;25.40;99.90;;;;;;5033641;28;19936;-50
2022/08/02 13:32:47;;;;;;;;;;;25.30;99.90;;;;;;5034441;28;19944;-50
2022/08/02 13:35:12;;;;;;;;;;;25.10;99.90;;;;;;5041559;28;20533;-48
2022/08/02 13:37:40;;;;;;;;;;;25.00;99.90;;;;;;5038730;28;19932;-48
2022/08/02 13:40:06;;;;;;;;;;;25.00;99.90;;;;;;5036668;28;19975;-49
2022/08/02 13:42:32;;;;;;;;;;;25.00;99.90;;;;;;5023393;28;20447;-49
2022/08/02 13:44:57;;;;;;;;;;;25.00;99.90;;;;;;5030885;28;20351;-50
2022/08/02 13:47:23;;;;;;;;;;;25.10;99.90;;;;;;5036367;28;19949;-46
2022/08/02 13:49:49;;;;;;;;;;;25.30;99.90;;;;;;5038775;28;19932;-47
2022/08/02 13:52:16;;;;;;;;;;;25.30;99.90;;;;;;5031144;28;19940;-51
2022/08/02 13:54:42;;;;;;;;;;;25.30;99.90;;;;;;5038254;28;20296;-49
2022/08/02 13:57:08;;;;;;;;;;;25.30;99.90;;;;;;5030971;28;19934;-50
2022/08/02 13:59:33;;;;;;;;;;;25.30;99.90;;;;;;5023430;28;20391;-51
2022/08/02 14:01:59;;;;;;;;;;;25.20;99.90;;;;;;5029408;28;19931;-51
2022/08/02 14:04:25;;;;;;;;;;;25.20;99.90;;;;;;5034527;28;19933;-49
2022/08/02 14:06:57;;;;;;;;;;;25.20;99.90;;;;;;5036130;28;20298;-50
2022/08/02 14:09:23;;;;;;;;;;;25.20;99.90;;;;;;5038051;28;19929;-51
2022/08/02 14:11:48;;;;;;;;;;;25.20;99.90;;;;;;5036587;28;20494;-47
2022/08/02 14:14:14;;;;;;;;;;;25.20;99.90;;;;;;5039770;28;19978;-47
2022/08/02 14:16:40;;;;;;;;;;;25.30;99.90;;;;;;5038006;28;20382;-46
2022/08/02 14:19:06;;;;;;;;;;;25.30;99.90;;;;;;5041373;28;20018;-47
2022/08/02 14:21:31;;;;;;;;;;;25.30;99.90;;;;;;5037395;28;20376;-47
2022/08/02 14:23:57;;;;;;;;;;;25.30;99.90;;;;;;5043839;28;19928;-48
2022/08/02 14:26:23;;;;;;;;;;;25.40;99.90;;;;;;5034022;28;19933;-48
2022/08/02 14:28:48;;;;;;;;;;;25.30;99.90;;;;;;5046206;28;19935;-47
2022/08/02 14:31:14;;;;;;;;;;;25.40;99.90;;;;;;5046940;28;19929;-48
2022/08/02 14:33:39;;;;;;;;;;;25.50;99.90;;;;;;5026622;28;19937;-47
2022/08/02 14:36:05;;;;;;;;;;;25.50;99.90;;;;;;5046426;28;19940;-49
2022/08/02 14:38:31;;;;;;;;;;;25.60;99.90;;;;;;5050388;28;19928;-46
2022/08/02 14:40:57;;;;;;;;;;;25.60;99.50;;;;;;5042013;28;19933;-50
2022/08/02 14:46:07;;;;;;;;;;;26.00;99.90;;;;;;5040525;28;19951;-50
2022/08/02 14:48:32;;;;;;;;;;;26.30;99.90;;;;;;5044793;28;20268;-48
2022/08/02 14:51:03;;;;;;;;;;;26.40;99.90;;;;;;5041115;28;19929;-50